Time;durP1;ratioP1;P1;durP2;ratioP2;P2;SDS_P1;SDS_P2;PMS_P1;PMS_P2;Temp;Humidity;BMP_temperature;BMP_pressure;BME280_temperature;BME280_humidity;BME280_pressure;Samples;Min_cycle;Max_cycle;Signal;HPM_P1;HPM_P2
2021/10/29 00:02:08;;;;;;;26.95;12.35;;;9.00;99.90;;;7.45;98.13;100800.44;2568967;30;138386;-39
2021/10/29 00:04:36;;;;;;;24.35;12.73;;;9.00;99.90;;;7.47;98.47;100795.66;2566034;30;136980;-40
2021/10/29 00:07:04;;;;;;;25.35;12.65;;;9.00;99.90;;;7.40;98.25;100781.16;2568477;30;138269;-40
2021/10/29 00:09:32;;;;;;;;;;;9.00;99.90;;;7.41;98.54;100796.41;2568914;30;136856;-40
2021/10/29 00:12:03;;;;;;;23.92;12.77;;;9.00;99.90;;;7.36;98.89;100801.56;2568832;30;137484;-40
2021/10/29 00:14:32;;;;;;;29.02;12.93;;;9.00;99.90;;;7.36;98.91;100798.84;2568733;30;137444;-40
2021/10/29 00:17:04;;;;;;;23.77;12.52;;;9.00;99.90;;;7.33;99.00;100792.78;2567273;30;138387;-39
2021/10/29 00:19:31;;;;;;;26.00;13.20;;;8.90;99.90;;;7.34;99.40;100799.88;2566983;30;138454;-40
2021/10/29 00:22:00;;;;;;;24.92;12.40;;;8.90;99.90;;;7.38;99.12;100797.63;2568276;30;138069;-40
2021/10/29 00:24:27;;;;;;;22.50;11.90;;;8.90;99.90;;;7.34;98.97;100808.03;2568892;30;137543;-39
2021/10/29 00:26:58;;;;;;;25.75;12.38;;;8.90;99.90;;;7.35;99.09;100800.75;2568351;30;139271;-40
2021/10/29 00:29:28;;;;;;;23.55;12.70;;;8.90;99.90;;;7.28;99.18;100805.22;2568416;30;136891;-40
2021/10/29 00:31:56;;;;;;;23.95;12.85;;;8.90;99.90;;;7.31;99.13;100804.88;2568255;30;138141;-40
2021/10/29 00:34:24;;;;;;;24.55;12.82;;;8.90;99.90;;;7.27;99.55;100808.97;2568243;30;136710;-40
2021/10/29 00:36:51;;;;;;;;;;;8.90;99.90;;;7.38;99.37;100805.78;2568048;30;139002;-40
2021/10/29 00:39:21;;;;;;;20.33;10.70;;;8.90;99.90;;;7.34;99.27;100805.31;2568828;30;137289;-40
2021/10/29 00:41:49;;;;;;;21.15;11.38;;;8.90;99.90;;;7.37;98.94;100803.25;2566886;30;138728;-40
2021/10/29 00:44:27;;;;;;;22.05;11.60;;;8.90;99.90;;;7.33;99.15;100797.38;2568580;30;137346;-39
2021/10/29 00:46:55;;;;;;;24.80;12.88;;;8.90;99.90;;;7.34;99.12;100789.03;2567405;30;138198;-40
2021/10/29 00:49:25;;;;;;;20.92;11.63;;;8.90;99.90;;;7.29;99.55;100798.78;2566270;30;137748;-40
2021/10/29 00:51:53;;;;;;;21.77;11.32;;;8.90;99.90;;;7.29;99.69;100793.34;2567627;30;139015;-40
2021/10/29 00:54:24;;;;;;;23.45;12.63;;;8.90;99.90;;;7.33;99.66;100803.63;2567912;30;136752;-40
2021/10/29 00:56:56;;;;;;;25.02;12.00;;;8.90;99.90;;;7.32;99.36;100779.41;2566512;30;138476;-40
2021/10/29 00:59:23;;;;;;;22.40;11.65;;;8.90;99.90;;;7.34;99.62;100786.31;2569154;30;137713;-40
2021/10/29 01:01:51;;;;;;;23.63;11.90;;;8.90;99.90;;;7.38;99.31;100784.06;2567362;30;137903;-40
2021/10/29 01:04:19;;;;;;;21.52;11.80;;;9.00;99.90;;;7.39;99.06;100784.88;2568003;30;137585;-40
2021/10/29 01:06:47;;;;;;;23.30;12.27;;;9.00;99.90;;;7.42;99.57;100790.78;2564892;30;138839;-40
2021/10/29 01:09:14;;;;;;;22.52;12.13;;;9.00;99.90;;;7.43;99.19;100792.47;2568432;30;136687;-40
2021/10/29 01:11:43;;;;;;;21.33;11.23;;;9.00;99.90;;;7.41;99.23;100785.53;2567721;30;137599;-40
2021/10/29 01:14:11;;;;;;;20.67;10.90;;;9.00;99.90;;;7.38;99.35;100789.50;2568107;30;137534;-40
2021/10/29 01:16:38;;;;;;;;;;;9.00;99.90;;;7.49;99.31;100790.88;2567811;30;137413;-40
2021/10/29 01:19:06;;;;;;;18.65;9.82;;;9.00;99.90;;;7.41;98.78;100789.09;2567897;30;136773;-40
2021/10/29 01:21:33;;;;;;;20.27;10.68;;;9.00;99.90;;;7.45;99.34;100778.72;2567948;30;137335;-39
2021/10/29 01:24:01;;;;;;;21.65;11.52;;;9.00;99.90;;;7.50;99.06;100778.97;2568508;30;137541;-40
2021/10/29 01:26:29;;;;;;;20.77;10.52;;;9.00;99.90;;;7.54;98.74;100771.25;2567426;30;137399;-40
2021/10/29 01:28:57;;;;;;;;;;;9.10;99.90;;;7.61;98.14;100772.19;2566315;30;137216;-40
2021/10/29 01:31:24;;;;;;;20.30;10.30;;;9.10;99.90;;;7.63;97.66;100761.97;2567974;30;138929;-40
2021/10/29 01:33:52;;;;;;;22.33;10.77;;;9.10;99.90;;;7.61;97.80;100764.88;2567118;30;137841;-40
2021/10/29 01:36:20;;;;;;;20.58;10.70;;;9.20;99.90;;;7.57;97.79;100766.28;2568210;30;138194;-40
2021/10/29 01:38:50;;;;;;;25.77;12.00;;;9.20;99.90;;;7.55;98.00;100759.38;2568137;30;138601;-40
2021/10/29 01:41:18;;;;;;;18.40;10.35;;;9.10;99.90;;;7.54;97.69;100755.81;2567450;30;138177;-40
2021/10/29 01:43:49;;;;;;;;;;;9.10;99.90;;;7.47;97.78;100753.03;2567477;30;137475;-40
2021/10/29 01:46:17;;;;;;;19.88;9.95;;;9.10;99.90;;;7.45;98.24;100749.69;2565191;30;138407;-40
2021/10/29 01:48:51;;;;;;;18.65;9.98;;;9.10;99.90;;;7.54;98.02;100746.81;2567999;30;138287;-40
2021/10/29 01:51:19;;;;;;;17.83;10.25;;;9.10;99.90;;;7.48;98.05;100741.16;2568210;30;138450;-40
2021/10/29 01:53:47;;;;;;;19.35;10.18;;;9.10;99.90;;;7.50;98.13;100743.69;2568392;30;137029;-40
2021/10/29 01:56:14;;;;;;;19.45;10.63;;;9.10;99.90;;;7.51;97.79;100745.34;2567466;30;138175;-40
2021/10/29 01:58:42;;;;;;;20.90;10.60;;;9.10;99.90;;;7.61;97.28;100734.19;2566909;30;136738;-40
2021/10/29 02:01:09;;;;;;;18.50;9.65;;;9.10;99.90;;;7.56;97.33;100726.59;2568365;30;138255;-40
2021/10/29 02:03:37;;;;;;;17.10;9.20;;;9.10;99.90;;;7.66;96.73;100728.13;2569381;30;137431;-40
2021/10/29 02:06:05;;;;;;;20.83;10.38;;;9.20;99.90;;;7.63;96.56;100726.66;2566891;30;138313;-40
2021/10/29 02:08:33;;;;;;;17.30;9.73;;;9.20;99.90;;;7.58;96.75;100729.97;2565021;30;138793;-40
2021/10/29 02:11:01;;;;;;;18.98;9.93;;;9.20;99.90;;;7.62;96.41;100728.53;2566295;30;138375;-40
2021/10/29 02:13:29;;;;;;;19.08;10.32;;;9.20;99.90;;;7.56;96.47;100715.75;2568944;30;137496;-40
2021/10/29 02:15:57;;;;;;;17.45;9.05;;;9.20;99.90;;;7.62;96.46;100720.38;2567558;30;136996;-39
2021/10/29 02:18:24;;;;;;;20.98;9.85;;;9.20;99.90;;;7.56;96.38;100721.16;2567485;30;136596;-40
2021/10/29 02:20:56;;;;;;;18.70;9.70;;;9.10;99.90;;;7.52;96.45;100705.47;2566147;38;137413;-40
2021/10/29 02:23:26;;;;;;;18.42;9.20;;;9.10;99.90;;;7.47;96.83;100708.78;2566012;30;137309;-40
2021/10/29 02:25:55;;;;;;;18.08;9.10;;;9.10;99.90;;;7.51;96.81;100706.50;2567226;30;139026;-40
2021/10/29 02:28:23;;;;;;;18.60;9.63;;;9.10;99.90;;;7.50;96.69;100711.09;2566305;30;137433;-40
2021/10/29 02:30:52;;;;;;;19.55;10.27;;;9.10;99.90;;;7.47;96.89;100701.47;2568090;30;138257;-40
2021/10/29 02:33:20;;;;;;;18.48;10.00;;;9.10;99.90;;;7.46;97.01;100696.25;2568490;30;137634;-40
2021/10/29 02:35:48;;;;;;;17.13;9.05;;;9.10;99.90;;;7.42;97.05;100692.22;2567217;30;137669;-40
2021/10/29 02:38:16;;;;;;;;;;;9.00;99.90;;;7.51;96.58;100693.78;2568208;30;137667;-40
2021/10/29 02:40:45;;;;;;;17.13;8.65;;;9.10;99.90;;;7.43;96.73;100689.31;2568393;30;137173;-40
2021/10/29 02:43:12;;;;;;;15.82;8.75;;;9.00;99.90;;;7.45;96.93;100689.97;2568222;30;137037;-40
2021/10/29 02:45:40;;;;;;;16.88;9.55;;;9.00;99.90;;;7.56;96.71;100685.88;2567499;30;138499;-40
2021/10/29 02:48:07;;;;;;;18.17;9.15;;;9.10;99.90;;;7.37;96.15;100640.41;2574430;30;138604;-38
2021/10/29 02:50:35;;;;;;;19.10;9.82;;;9.10;99.90;;;7.57;96.09;100682.13;2569577;30;137505;-38
2021/10/29 02:53:05;;;;;;;16.55;9.55;;;9.10;99.90;;;7.59;96.10;100679.22;2566718;30;137835;-38
2021/10/29 02:55:32;;;;;;;17.33;9.13;;;9.10;99.90;;;7.56;95.89;100679.59;2568401;30;137814;-38
2021/10/29 02:58:01;;;;;;;20.20;9.80;;;9.10;99.90;;;7.60;95.72;100680.91;2568261;30;137575;-38
2021/10/29 03:00:29;;;;;;;18.23;9.10;;;9.10;99.90;;;7.60;95.44;100670.88;2569216;30;137165;-38
2021/10/29 03:02:57;;;;;;;;;;;9.20;99.90;;;7.58;95.75;100681.09;2570109;30;138251;-38
2021/10/29 03:05:25;;;;;;;17.50;8.75;;;9.20;99.90;;;7.53;95.68;100664.56;2569154;30;139302;-38
2021/10/29 03:07:53;;;;;;;;;;;9.10;99.90;;;7.58;95.84;100670.22;2568080;30;138308;-38
2021/10/29 03:10:20;;;;;;;19.27;9.32;;;9.10;99.90;;;7.53;95.86;100661.00;2568515;30;138971;-38
2021/10/29 03:12:48;;;;;;;19.50;9.57;;;9.10;99.90;;;7.58;95.73;100661.25;2567931;30;137417;-38
2021/10/29 03:15:15;;;;;;;21.00;10.35;;;9.10;99.90;;;7.57;95.74;100663.13;2569476;30;139197;-39
2021/10/29 03:17:43;;;;;;;21.90;10.77;;;9.10;99.90;;;7.66;95.25;100661.09;2570154;30;137235;-38
2021/10/29 03:20:11;;;;;;;20.45;9.55;;;9.20;99.90;;;7.56;95.56;100645.16;2570290;30;137448;-38
2021/10/29 03:22:39;;;;;;;18.52;9.82;;;9.20;99.90;;;7.60;95.69;100657.28;2568875;30;137052;-38
2021/10/29 03:25:08;;;;;;;18.65;10.00;;;9.10;99.90;;;7.66;95.17;100652.97;2569965;30;138292;-38
2021/10/29 03:27:35;;;;;;;18.42;9.73;;;9.20;99.90;;;7.71;94.86;100655.91;2567953;30;137494;-38
2021/10/29 03:30:05;;;;;;;20.35;10.05;;;9.20;99.90;;;7.70;94.75;100656.13;2568650;30;138907;-38
2021/10/29 03:32:33;;;;;;;21.25;10.05;;;9.20;99.90;;;7.64;94.86;100652.31;2570055;30;136768;-38
2021/10/29 03:35:02;;;;;;;17.70;9.50;;;9.20;99.90;;;7.59;95.22;100652.91;2567430;30;139308;-38
2021/10/29 03:37:56;;;;;;;20.27;9.52;;;9.20;99.90;;;7.52;95.43;100652.00;2570376;30;138362;-38
2021/10/29 03:40:52;;;;;;;21.77;10.43;;;9.10;99.90;;;7.54;95.56;100651.81;2570903;30;139160;-38
2021/10/29 03:46:18;;;;;;;21.67;10.55;;;9.10;99.90;;;7.61;95.28;100639.97;2568642;30;138579;-40
2021/10/29 03:51:59;;;;;;;21.33;9.88;;;9.10;99.90;;;7.61;95.14;100642.69;2565811;30;138536;-37
2021/10/29 03:54:31;;;;;;;19.38;10.18;;;9.20;99.90;;;7.59;95.61;100639.31;2567354;30;137344;-40
2021/10/29 03:59:30;;;;;;;20.52;10.45;;;9.10;99.90;;;7.55;95.84;100642.63;2569829;30;136845;-40
2021/10/29 04:01:57;;;;;;;20.88;10.60;;;9.10;99.90;;;7.55;95.95;100651.63;2567748;30;138241;-40
2021/10/29 04:04:25;;;;;;;20.40;10.52;;;9.10;99.90;;;7.67;95.35;100651.06;2568884;30;137621;-40
2021/10/29 04:06:54;;;;;;;16.92;10.07;;;9.20;99.90;;;7.65;94.63;100645.84;2569698;30;138339;-40
2021/10/29 04:09:22;;;;;;;18.73;9.57;;;9.20;99.90;;;7.57;94.92;100640.56;2569679;30;137110;-40
2021/10/29 04:11:49;;;;;;;20.40;10.38;;;9.20;99.90;;;7.50;95.53;100635.09;2569793;30;139166;-40
2021/10/29 04:14:21;;;;;;;19.30;9.95;;;9.10;99.90;;;7.45;95.92;100637.56;2571115;30;136895;-40
2021/10/29 04:16:49;;;;;;;20.77;9.77;;;9.10;99.90;;;7.55;95.67;100634.47;2571065;30;139125;-40
2021/10/29 04:19:16;;;;;;;19.10;9.88;;;9.10;99.90;;;7.59;95.34;100636.63;2567938;30;136683;-40
2021/10/29 04:21:44;;;;;;;22.88;10.35;;;9.10;99.90;;;7.57;94.97;100633.25;2568741;30;138323;-40
2021/10/29 04:24:12;;;;;;;19.05;9.15;;;9.10;99.90;;;7.72;94.71;100635.03;2568005;30;137721;-40
2021/10/29 04:26:40;;;;;;;18.15;9.73;;;9.20;99.90;;;7.71;94.40;100631.47;2570351;30;139055;-40
2021/10/29 04:29:17;;;;;;;20.77;9.82;;;9.20;99.90;;;7.71;94.26;100619.78;2569828;30;137640;-40
2021/10/29 04:31:51;;;;;;;19.17;9.50;;;9.30;99.90;;;7.76;94.22;100620.03;2569865;30;138910;-40
2021/10/29 04:34:26;;;;;;;17.35;9.43;;;9.30;99.90;;;7.76;94.06;100618.13;2571171;30;136740;-40
2021/10/29 04:36:59;;;;;;;18.05;9.35;;;9.30;99.90;;;7.86;93.65;100625.09;2569090;30;138596;-40
2021/10/29 04:39:27;;;;;;;18.65;9.32;;;9.30;99.90;;;7.86;93.70;100622.41;2570068;30;137534;-40
2021/10/29 04:41:55;;;;;;;18.83;9.77;;;9.40;99.90;;;7.85;93.66;100621.53;2568375;30;136979;-40
2021/10/29 04:44:23;;;;;;;16.85;8.70;;;9.40;99.90;;;7.87;93.85;100621.34;2568337;30;138431;-40
2021/10/29 04:46:52;;;;;;;;;;;9.40;99.90;;;7.90;93.24;100624.50;2569133;30;139384;-40
2021/10/29 04:49:20;;;;;;;17.15;9.02;;;9.40;99.90;;;7.88;93.31;100610.28;2569173;30;138502;-40
2021/10/29 04:51:47;;;;;;;20.38;9.38;;;9.40;99.90;;;7.83;93.48;100607.31;2568284;30;138010;-40
2021/10/29 04:54:15;;;;;;;18.48;8.88;;;9.40;99.90;;;7.89;93.62;100611.94;2567695;30;137676;-40
2021/10/29 04:56:43;;;;;;;19.67;9.70;;;9.40;99.90;;;7.88;93.44;100615.69;2569388;30;137547;-40
2021/10/29 04:59:14;;;;;;;;;;;9.40;99.90;;;7.91;93.24;100614.47;2569103;30;138512;-40
2021/10/29 05:01:44;;;;;;;17.65;9.70;;;9.40;99.90;;;8.00;92.55;100607.00;2570377;30;138241;-40
2021/10/29 05:04:14;;;;;;;16.77;8.80;;;9.50;99.90;;;8.03;92.33;100606.59;2568175;30;137640;-40
2021/10/29 05:06:42;;;;;;;16.70;8.75;;;9.50;99.90;;;8.06;92.33;100601.59;2568718;30;137068;-40
2021/10/29 05:09:10;;;;;;;20.77;8.98;;;9.50;99.90;;;8.05;92.18;100599.91;2568474;30;138455;-40
2021/10/29 05:11:37;;;;;;;19.23;8.63;;;9.60;99.90;;;8.06;91.80;100596.16;2568993;30;138543;-40
2021/10/29 05:14:05;;;;;;;18.75;9.32;;;9.60;99.90;;;8.04;92.20;100600.13;2569035;30;136894;-40
2021/10/29 05:16:33;;;;;;;15.82;8.38;;;9.60;99.90;;;8.03;92.12;100590.31;2568407;30;137064;-40
2021/10/29 05:19:00;;;;;;;;;;;9.60;99.90;;;7.98;92.35;100596.31;2570241;30;137406;-41
2021/10/29 05:21:28;;;;;;;17.13;9.13;;;9.50;99.90;;;7.98;92.27;100590.91;2568509;30;137090;-40
2021/10/29 05:23:55;;;;;;;16.08;8.20;;;9.50;99.90;;;7.90;92.00;100574.78;2566965;30;138194;-40
2021/10/29 05:26:23;;;;;;;16.45;9.30;;;9.50;99.90;;;8.00;92.19;100591.53;2568933;30;139317;-40
2021/10/29 05:28:51;;;;;;;17.38;8.90;;;9.60;99.90;;;7.91;92.17;100588.13;2567327;30;137767;-40
2021/10/29 05:31:18;;;;;;;17.50;9.05;;;9.50;99.90;;;7.94;92.17;100591.50;2572974;30;139079;-40
2021/10/29 05:33:46;;;;;;;18.63;8.93;;;9.50;99.90;;;7.85;92.58;100588.94;2570320;30;137476;-40
2021/10/29 05:36:14;;;;;;;18.30;8.13;;;9.50;99.90;;;7.83;92.44;100584.75;2570002;30;138562;-41
2021/10/29 05:38:42;;;;;;;17.17;8.50;;;9.40;99.90;;;7.76;92.24;100582.81;2567234;30;137704;-40
2021/10/29 05:41:11;;;;;;;17.17;9.02;;;9.40;99.90;;;7.75;92.77;100586.59;2568478;30;138198;-40
2021/10/29 05:43:39;;;;;;;14.40;8.45;;;9.30;99.90;;;7.74;92.78;100581.38;2569978;30;137712;-40
2021/10/29 05:46:07;;;;;;;18.67;9.50;;;9.30;99.90;;;7.70;92.91;100582.81;2569883;30;138494;-40
2021/10/29 05:48:38;;;;;;;16.30;9.38;;;9.30;99.90;;;7.77;92.36;100583.69;2569539;30;137192;-40
2021/10/29 05:51:10;;;;;;;17.80;8.32;;;9.30;99.90;;;7.80;92.24;100580.56;2570186;30;138145;-40
2021/10/29 05:54:35;;;;;;;19.70;8.88;;;9.30;99.90;;;7.86;91.54;100573.50;2569010;30;137385;-41
2021/10/29 05:56:26;;;;;;;16.35;8.57;;;9.40;99.90;;;7.81;91.60;100567.81;2567930;30;137184;-40
2021/10/29 05:58:54;;;;;;;15.70;8.20;;;9.40;99.90;;;7.88;91.79;100572.25;2569279;30;137071;-40
2021/10/29 06:01:21;;;;;;;18.27;8.68;;;9.40;99.90;;;8.00;91.23;100577.94;2567141;30;138833;-40
2021/10/29 06:03:50;;;;;;;18.95;8.70;;;9.50;99.90;;;7.98;91.38;100573.78;2568195;30;137498;-40
2021/10/29 06:06:17;;;;;;;18.00;8.57;;;9.50;99.90;;;7.98;91.35;100565.63;2569367;30;139254;-40
2021/10/29 06:08:45;;;;;;;19.02;9.27;;;9.50;99.90;;;8.13;89.95;100568.19;2568784;30;137622;-40
2021/10/29 06:11:12;;;;;;;18.38;8.82;;;9.60;99.90;;;8.19;89.95;100568.19;2569836;30;139205;-40
2021/10/29 06:13:41;;;;;;;18.52;9.23;;;9.60;99.90;;;8.17;89.79;100566.75;2567530;30;138602;-40
2021/10/29 06:16:10;;;;;;;15.07;8.25;;;9.70;99.90;;;8.17;89.77;100559.41;2567907;30;136677;-40
2021/10/29 06:18:38;;;;;;;20.38;9.95;;;9.70;99.90;;;8.17;89.58;100556.69;2568506;30;136722;-40
2021/10/29 06:21:06;;;;;;;16.63;8.88;;;9.70;99.90;;;8.25;89.33;100555.69;2569785;30;138340;-40
2021/10/29 06:26:25;;;;;;;16.67;9.05;;;9.80;99.90;;;8.29;88.90;100550.69;2568457;30;137478;-40
2021/10/29 06:28:54;;;;;;;17.10;8.88;;;9.80;99.90;;;8.32;88.72;100550.28;2568835;30;138542;-40
2021/10/29 06:31:22;;;;;;;16.58;7.82;;;9.80;99.90;;;8.35;88.66;100553.44;2568717;30;138800;-40
2021/10/29 06:33:49;;;;;;;;;;;9.80;99.90;;;8.39;88.32;100553.84;2571336;30;137603;-40
2021/10/29 06:36:17;;;;;;;17.67;8.40;;;9.90;99.90;;;8.41;88.31;100556.38;2566927;30;138528;-40
2021/10/29 06:38:44;;;;;;;14.38;8.05;;;9.90;99.90;;;8.40;87.94;100563.69;2567629;30;137513;-40
2021/10/29 06:41:12;;;;;;;14.57;8.60;;;9.90;99.90;;;8.44;87.88;100564.94;2568258;30;139013;-40
2021/10/29 06:43:51;;;;;;;16.40;7.95;;;9.90;99.90;;;8.43;87.73;100563.25;2570508;30;137828;-40
2021/10/29 06:46:37;;;;;;;15.63;8.25;;;9.90;99.90;;;8.45;87.85;100563.91;2569557;30;136742;-41
2021/10/29 07:40:57;;;;;;;17.98;7.90;;;10.20;99.90;;;8.69;86.70;100580.72;2569532;30;137142;-40
2021/10/29 07:43:36;;;;;;;18.15;8.52;;;10.10;99.90;;;8.77;85.89;100586.00;2569304;30;138288;-40
2021/10/29 07:46:05;;;;;;;15.43;7.78;;;10.20;99.90;;;8.75;86.81;100584.50;2569036;30;136829;-40
2021/10/29 07:48:34;;;;;;;15.93;7.78;;;10.20;99.90;;;8.75;87.11;100579.91;2567757;30;136937;-38
2021/10/29 07:51:05;;;;;;;14.23;7.90;;;10.20;99.90;;;8.78;86.65;100578.66;2568170;30;137884;-38
2021/10/29 07:53:34;;;;;;;14.90;8.05;;;10.20;99.90;;;8.84;87.15;100574.28;2567319;30;137580;-39
2021/10/29 07:56:05;;;;;;;13.55;7.70;;;10.30;99.90;;;8.90;86.87;100570.72;2565837;30;138315;-40
2021/10/29 07:58:37;;;;;;;14.70;7.28;;;10.30;99.90;;;8.89;86.72;100577.19;2569201;30;137449;-40
2021/10/29 08:01:06;;;;;;;15.18;7.78;;;10.30;99.90;;;8.98;86.27;100569.69;2569889;30;139311;-40
2021/10/29 08:03:33;;;;;;;13.82;7.50;;;10.40;99.90;;;9.03;86.67;100576.19;2570007;30;137516;-40
2021/10/29 08:06:01;;;;;;;15.38;7.80;;;10.50;99.90;;;9.07;87.04;100565.69;2570570;30;137434;-41
2021/10/29 08:08:29;;;;;;;14.18;7.20;;;10.50;99.90;;;9.19;85.19;100565.91;2570802;30;137280;-40
2021/10/29 08:10:57;;;;;;;17.20;7.85;;;10.60;99.90;;;9.24;85.32;100562.56;2568810;30;138310;-40
2021/10/29 08:13:25;;;;;;;14.85;8.20;;;10.60;99.90;;;9.32;84.97;100562.34;2566632;30;137652;-40
2021/10/29 08:15:58;;;;;;;15.35;8.20;;;10.70;99.90;;;9.43;83.87;100560.88;2569891;30;137462;-40
2021/10/29 08:18:26;;;;;;;17.70;8.05;;;10.80;99.90;;;9.59;83.48;100571.34;2569456;30;137449;-40
2021/10/29 08:20:54;;;;;;;14.45;7.78;;;10.90;99.90;;;9.58;83.58;100569.66;2567844;30;139138;-40
2021/10/29 08:23:22;;;;;;;13.15;7.50;;;11.00;99.90;;;9.61;83.44;100569.22;2568722;30;136990;-40
2021/10/29 08:25:51;;;;;;;10.95;7.10;;;11.00;99.90;;;9.62;83.06;100570.91;2570045;30;136774;-40
2021/10/29 08:28:18;;;;;;;15.38;8.00;;;11.00;99.90;;;9.61;83.57;100566.50;2570051;30;138309;-40
2021/10/29 08:30:51;;;;;;;14.80;7.57;;;11.00;99.90;;;9.63;83.00;100567.13;2570016;30;139154;-40
2021/10/29 08:33:20;;;;;;;14.52;7.40;;;11.10;99.90;;;9.58;83.29;100568.81;2568046;30;138064;-40
2021/10/29 08:35:50;;;;;;;13.95;7.38;;;11.00;99.90;;;9.55;83.06;100564.66;2570966;30;139125;-40
2021/10/29 08:38:20;;;;;;;12.45;7.50;;;11.00;99.90;;;9.54;83.72;100557.50;2569390;30;137612;-40
2021/10/29 08:40:50;;;;;;;11.77;6.88;;;11.00;99.90;;;9.56;84.11;100568.19;2567483;30;137405;-40
2021/10/29 08:43:19;;;;;;;12.18;6.97;;;11.00;99.90;;;9.61;83.45;100574.69;2569987;30;137611;-40
2021/10/29 08:45:47;;;;;;;12.80;7.40;;;11.00;99.90;;;9.67;83.89;100564.81;2568921;30;137460;-40
2021/10/29 08:48:14;;;;;;;10.90;6.60;;;11.00;99.90;;;9.76;84.13;100560.81;2569395;30;137995;-39
2021/10/29 08:50:42;;;;;;;12.50;7.20;;;11.10;99.90;;;9.90;82.60;100566.22;2567232;30;137637;-40
2021/10/29 08:53:10;;;;;;;12.90;7.05;;;11.20;99.90;;;9.99;82.96;100564.94;2568502;30;137215;-39
2021/10/29 08:55:38;;;;;;;14.43;7.05;;;11.30;99.90;;;10.11;82.37;100556.09;2567950;30;138432;-39
2021/10/29 08:58:08;;;;;;;13.30;7.28;;;11.40;99.90;;;10.28;81.43;100560.00;2568410;30;137832;-39
2021/10/29 09:00:44;;;;;;;14.45;7.55;;;11.60;99.90;;;10.43;81.92;100561.63;2568545;30;138493;-39
2021/10/29 09:03:29;;;;;;;14.45;7.20;;;11.70;99.90;;;10.59;80.42;100555.66;2569540;30;137502;-40
2021/10/29 09:06:33;;;;;;;13.63;7.78;;;11.80;99.90;;;10.75;80.27;100548.84;2568972;30;137286;-39
2021/10/29 09:09:29;;;;;;;13.73;6.88;;;12.00;99.90;;;10.86;80.01;100557.38;2567912;30;137014;-40
2021/10/29 09:31:31;;;;;;;18.10;6.97;;;12.50;99.90;;;11.35;77.72;100508.47;2567934;30;137102;-40
2021/10/29 09:34:10;;;;;;;11.23;6.60;;;12.60;99.90;;;11.43;77.55;100508.16;2567791;30;138370;-39
2021/10/29 09:36:43;;;;;;;11.10;6.40;;;12.70;99.90;;;11.53;77.83;100513.09;2567962;30;137527;-40
2021/10/29 09:39:22;;;;;;;12.23;6.43;;;12.80;99.90;;;11.59;76.29;100495.78;2567045;30;139220;-39
2021/10/29 09:42:16;;;;;;;11.02;6.57;;;12.80;99.90;;;11.69;76.50;100503.47;2566949;30;137478;-40
2021/10/29 09:44:53;;;;;;;12.20;6.13;;;12.90;99.90;;;11.76;74.78;100489.72;2567915;30;138259;-40
2021/10/29 09:47:27;;;;;;;11.85;6.63;;;13.10;99.90;;;11.81;75.69;100492.59;2567442;30;137356;-39
2021/10/29 09:50:05;;;;;;;11.20;6.20;;;13.10;99.90;;;11.90;75.27;100491.22;2568077;30;138390;-40
2021/10/29 09:53:09;;;;;;;10.13;5.43;;;13.20;99.90;;;11.94;75.28;100480.66;2568282;30;137670;-40
2021/10/29 09:55:48;;;;;;;12.38;6.43;;;13.20;99.90;;;11.94;75.10;100487.00;2568231;30;137665;-40
2021/10/29 09:58:18;;;;;;;9.98;5.68;;;13.20;99.90;;;11.94;75.96;100475.22;2568120;30;136860;-40
2021/10/29 10:00:47;;;;;;;9.77;5.88;;;13.20;99.90;;;11.93;75.00;100471.66;2567350;30;138581;-40
2021/10/29 10:03:23;;;;;;;10.63;6.05;;;13.20;99.90;;;11.94;74.74;100481.53;2568525;30;136630;-40
2021/10/29 10:05:58;;;;;;;10.55;5.13;;;13.30;99.90;;;11.92;75.69;100494.56;2568554;30;139128;-39
2021/10/29 10:08:28;;;;;;;13.15;5.97;;;13.30;99.90;;;11.91;75.80;100483.88;2568110;30;137001;-40
2021/10/29 10:10:58;;;;;;;10.82;5.82;;;13.30;99.90;;;11.94;76.96;100480.66;2567185;30;137684;-40
2021/10/29 10:13:29;;;;;;;9.70;5.43;;;13.30;99.90;;;12.03;76.65;100478.50;2568102;30;137599;-40
2021/10/29 10:16:00;;;;;;;10.77;5.30;;;13.30;99.90;;;12.07;75.67;100463.28;2568214;30;137495;-40
2021/10/29 10:18:28;;;;;;;8.52;5.45;;;13.40;99.90;;;12.24;74.80;100463.47;2568712;30;137675;-40
2021/10/29 10:21:01;;;;;;;9.23;5.47;;;13.50;99.90;;;12.36;76.11;100468.97;2568669;30;138178;-40
2021/10/29 10:23:33;;;;;;;9.55;5.25;;;13.60;99.90;;;12.43;75.35;100472.44;2566893;30;137346;-40
2021/10/29 10:28:59;;;;;;;8.95;5.28;;;13.70;99.90;;;12.69;74.24;100459.41;2568502;30;136840;-40
2021/10/29 10:40:50;;;;;;;8.55;5.43;;;14.30;99.90;;;13.29;71.46;100448.47;2568124;30;137004;-40
2021/10/29 10:46:20;;;;;;;8.02;4.68;;;14.50;99.90;;;13.33;69.89;100425.84;2566495;30;137299;-39
2021/10/29 10:49:12;;;;;;;10.43;4.68;;;14.60;99.90;;;13.44;71.79;100432.44;2568065;30;138290;-40
2021/10/29 10:51:52;;;;;;;8.32;5.60;;;14.70;99.90;;;13.48;71.44;100416.31;2565243;30;137511;-40
2021/10/29 10:54:49;;;;;;;7.47;4.65;;;14.70;99.90;;;13.42;70.31;100418.09;2568427;30;136993;-40
2021/10/29 11:11:04;;;;;;;9.93;5.10;;;14.60;99.90;;;13.32;70.51;100385.84;2567112;30;138853;-39
2021/10/29 11:13:44;;;;;;;7.95;4.95;;;14.60;99.90;;;13.48;70.23;100383.44;2567510;30;138158;-39
2021/10/29 11:16:38;;;;;;;9.95;5.40;;;14.70;99.90;;;13.58;69.73;100375.44;2567853;30;139316;-39
2021/10/29 11:19:15;;;;;;;9.77;5.60;;;14.80;99.90;;;13.77;70.40;100375.22;2565466;30;138498;-40
2021/10/29 11:21:56;;;;;;;9.15;4.43;;;14.90;99.90;;;13.97;69.14;100377.53;2567578;30;138481;-40
2021/10/29 11:24:36;;;;;;;8.00;4.85;;;15.00;99.90;;;14.17;68.65;100374.31;2567472;30;136942;-40
2021/10/29 11:27:10;;;;;;;8.20;4.78;;;15.20;99.90;;;14.18;66.67;100359.53;2567839;30;138565;-40
2021/10/29 11:29:55;;;;;;;9.32;4.90;;;15.30;99.90;;;14.21;67.20;100358.22;2566807;30;137089;-40
2021/10/29 11:32:25;;;;;;;8.75;4.13;;;15.40;99.90;;;14.15;67.32;100359.19;2566155;30;138309;-40
2021/10/29 11:35:02;;;;;;;8.48;3.92;;;15.40;99.90;;;14.13;68.64;100353.97;2568747;30;138876;-40
2021/10/29 11:37:35;;;;;;;7.85;4.10;;;15.40;99.90;;;14.07;67.96;100357.69;2567597;30;138121;-39
2021/10/29 11:40:06;;;;;;;11.23;4.07;;;15.30;99.90;;;14.03;66.34;100351.00;2568158;30;138400;-40
2021/10/29 11:42:34;;;;;;;7.40;3.47;;;15.30;99.90;;;13.99;68.54;100350.69;2569114;30;137439;-39
2021/10/29 11:45:03;;;;;;;8.10;3.92;;;15.30;99.90;;;14.01;68.88;100342.22;2569198;30;136929;-40
2021/10/29 11:47:36;;;;;;;12.10;3.78;;;15.30;99.90;;;14.02;68.18;100344.72;2568190;30;139134;-40
2021/10/29 11:50:13;;;;;;;7.70;3.63;;;15.30;99.90;;;14.08;69.14;100337.41;2568140;30;136958;-40
2021/10/29 11:52:43;;;;;;;7.18;3.70;;;15.30;99.90;;;14.16;68.10;100345.22;2565163;30;137917;-40
2021/10/29 11:56:23;;;;;;;7.75;3.35;;;15.30;99.90;;;14.22;67.43;100351.63;2566517;30;137307;-40
2021/10/29 11:58:22;;;;;;;7.53;3.17;;;15.40;99.90;;;14.27;66.14;100342.63;2568528;30;138566;-40
2021/10/29 12:09:31;;;;;;;7.55;3.30;;;15.70;99.90;;;14.72;66.36;100333.50;2567743;30;138880;-40
2021/10/29 12:12:14;;;;;;;5.30;2.72;;;15.80;99.90;;;14.88;66.64;100337.28;2568169;30;137746;-40
2021/10/29 12:14:45;;;;;;;7.20;3.15;;;16.00;99.90;;;14.96;66.60;100317.63;2568858;30;139413;-40
2021/10/29 12:17:36;;;;;;;6.28;2.70;;;16.10;99.90;;;15.15;67.14;100322.81;2568507;30;137283;-40
2021/10/29 12:20:08;;;;;;;7.05;2.90;;;16.20;99.90;;;15.29;63.57;100315.00;2567815;30;137663;-40
2021/10/29 12:25:21;;;;;;;7.32;3.03;;;16.50;99.90;;;15.41;64.40;100314.06;2567115;30;137922;-40
2021/10/29 12:30:33;;;;;;;6.78;2.67;;;16.50;99.90;;;15.33;64.34;100298.84;2567900;30;136820;-40
2021/10/29 13:01:36;;;;;;;5.47;2.85;;;16.40;99.90;;;15.19;64.25;100257.19;2566131;30;137593;-40